createdAt,value
2022-11-22T00:00:40.644Z,33.65
2022-11-22T00:05:37.278Z,37.08
2022-11-22T00:10:33.732Z,36.63
2022-11-22T00:15:30.384Z,36.15
2022-11-22T00:20:26.735Z,37.92
2022-11-22T00:25:22.929Z,36.92
2022-11-22T00:30:19.162Z,37.55
2022-11-22T00:35:15.352Z,38.25
2022-11-22T00:40:11.659Z,37.58
2022-11-22T00:45:08.125Z,36.63
2022-11-22T00:50:05.070Z,36.42
2022-11-22T00:55:01.377Z,35.03
2022-11-22T00:59:57.714Z,35.60
2022-11-22T01:04:53.954Z,38.05
2022-11-22T01:09:50.146Z,37.70
2022-11-22T01:14:46.332Z,38.92
2022-11-22T01:19:42.575Z,37.72
2022-11-22T01:24:39.905Z,39.08
2022-11-22T01:29:36.189Z,40.08
2022-11-22T01:34:32.519Z,37.60
2022-11-22T01:39:29.020Z,39.22
2022-11-22T01:44:26.663Z,40.58
2022-11-22T01:49:26.232Z,42.90
2022-11-22T01:54:23.885Z,42.13
2022-11-22T01:59:21.132Z,39.97
2022-11-22T02:04:18.554Z,40.28
2022-11-22T02:09:15.157Z,41.63
2022-11-22T02:14:11.900Z,39.67
2022-11-22T02:19:14.155Z,41.17
2022-11-22T02:24:19.239Z,42.70
2022-11-22T02:29:15.805Z,41.00
2022-11-22T02:34:12.706Z,43.40
2022-11-22T02:39:09.667Z,42.38
2022-11-22T02:44:07.629Z,41.90
2022-11-22T02:49:03.823Z,43.13
2022-11-22T02:54:00.059Z,44.97
2022-11-22T02:58:56.287Z,45.63
2022-11-22T03:03:52.530Z,46.15
2022-11-22T03:08:53.152Z,45.88
2022-11-22T03:13:52.258Z,42.42
2022-11-22T03:18:48.558Z,44.33
2022-11-22T03:23:44.829Z,43.30
2022-11-22T03:28:41.052Z,42.40
2022-11-22T03:33:37.300Z,44.17
2022-11-22T03:38:34.634Z,44.53
2022-11-22T03:43:30.921Z,46.20
2022-11-22T03:48:27.145Z,45.70
2022-11-22T03:53:23.338Z,46.42
2022-11-22T03:58:19.529Z,46.15
2022-11-22T04:03:15.706Z,44.03
2022-11-22T04:08:11.970Z,45.20
2022-11-22T04:13:08.204Z,45.60
2022-11-22T04:18:04.442Z,47.17
2022-11-22T04:23:02.136Z,46.28
2022-11-22T04:27:58.724Z,46.92
2022-11-22T04:32:54.905Z,45.67
2022-11-22T04:37:51.802Z,47.45
2022-11-22T04:43:06.491Z,48.20
2022-11-22T04:48:02.885Z,47.38
2022-11-22T04:52:59.093Z,47.85
2022-11-22T04:57:59.563Z,48.53
2022-11-22T05:02:57.048Z,52.10
2022-11-22T05:07:53.340Z,49.42
2022-11-22T05:12:49.665Z,50.20
2022-11-22T05:17:45.852Z,51.05
2022-11-22T05:23:00.877Z,52.63
2022-11-22T05:27:57.100Z,52.45
2022-11-22T05:32:54.599Z,49.55
2022-11-22T05:37:50.871Z,49.45
2022-11-22T05:42:47.054Z,50.38
2022-11-22T05:47:43.296Z,51.78
2022-11-22T05:52:39.517Z,52.42
2022-11-22T05:57:35.803Z,51.17
2022-11-22T06:02:32.406Z,49.60
2022-11-22T06:07:28.865Z,51.97
2022-11-22T06:12:25.156Z,50.88
2022-11-22T06:17:21.342Z,52.40
2022-11-22T06:22:17.535Z,52.53
2022-11-22T06:27:13.719Z,54.88
2022-11-22T06:32:09.976Z,56.60
2022-11-22T06:37:06.195Z,61.75
2022-11-22T06:42:02.371Z,62.78
2022-11-22T06:46:58.608Z,64.47
2022-11-22T06:51:54.794Z,67.85
2022-11-22T06:56:51.096Z,73.15
2022-11-22T07:01:47.381Z,74.03
2022-11-22T07:06:44.173Z,75.68
2022-11-22T07:11:41.537Z,76.60
2022-11-22T07:16:38.219Z,83.18
2022-11-22T07:21:34.896Z,80.93
2022-11-22T07:26:31.129Z,84.07
2022-11-22T07:31:28.235Z,88.88
2022-11-22T07:36:24.582Z,88.93
2022-11-22T07:41:22.331Z,88.15
2022-11-22T07:46:23.303Z,91.82
2022-11-22T07:51:19.560Z,97.22
2022-11-22T07:56:16.084Z,96.63
2022-11-22T08:01:13.749Z,97.72
2022-11-22T08:06:11.235Z,93.72
2022-11-22T08:11:08.413Z,95.78
2022-11-22T08:16:06.195Z,99.53
2022-11-22T08:21:10.190Z,100.43
2022-11-22T08:26:07.015Z,97.30
2022-11-22T08:31:05.364Z,97.70
2022-11-22T08:36:01.591Z,97.72
2022-11-22T08:40:57.875Z,101.03
2022-11-22T08:45:55.984Z,92.40
2022-11-22T08:50:56.038Z,98.95
2022-11-22T08:55:52.499Z,98.90
2022-11-22T09:00:48.749Z,98.13
2022-11-22T09:11:02.209Z,104.00
2022-11-22T09:16:07.818Z,93.40
2022-11-22T09:21:05.384Z,94.75
2022-11-22T09:26:01.546Z,92.47
2022-11-22T09:31:13.683Z,87.38
2022-11-22T09:36:11.301Z,89.63
2022-11-22T09:41:16.824Z,88.50
2022-11-22T09:46:31.827Z,87.13
2022-11-22T09:51:33.019Z,90.20
2022-11-22T09:56:29.496Z,87.72
2022-11-22T10:01:25.727Z,83.65
2022-11-22T10:06:33.616Z,85.00
2022-11-22T10:11:36.838Z,87.07
2022-11-22T10:16:47.746Z,86.07
2022-11-22T10:21:47.087Z,86.45
2022-11-22T10:26:43.703Z,89.13
2022-11-22T10:31:54.602Z,90.93
2022-11-22T10:36:54.892Z,88.45
2022-11-22T10:41:57.227Z,88.57
2022-11-22T10:47:08.482Z,91.43
2022-11-22T10:52:12.365Z,91.72
2022-11-22T10:57:15.318Z,93.72
2022-11-22T11:02:14.843Z,95.15
2022-11-22T11:07:16.793Z,92.63
2022-11-22T11:12:15.629Z,92.57
2022-11-22T11:17:15.933Z,86.53
2022-11-22T11:22:31.586Z,88.20
2022-11-22T11:27:34.178Z,87.85
2022-11-22T11:32:49.917Z,86.50
2022-11-22T11:37:46.117Z,85.18
2022-11-22T11:42:42.327Z,83.88
2022-11-22T11:47:38.622Z,84.85
2022-11-22T11:52:34.859Z,82.03
2022-11-22T11:57:33.526Z,82.20
2022-11-22T12:02:39.889Z,81.15
2022-11-22T12:07:36.160Z,83.82
2022-11-22T12:12:35.270Z,86.43
2022-11-22T12:17:34.131Z,85.60
2022-11-22T12:22:49.410Z,85.07
2022-11-22T12:27:46.447Z,81.38
2022-11-22T12:32:52.102Z,91.60
2022-11-22T12:37:50.968Z,98.40
2022-11-22T12:42:48.503Z,95.50
2022-11-22T12:47:46.631Z,97.97
2022-11-22T12:52:49.314Z,88.93
2022-11-22T12:57:59.155Z,87.43
2022-11-22T13:03:04.028Z,82.80
2022-11-22T13:08:00.210Z,81.75
2022-11-22T13:12:57.112Z,81.28
2022-11-22T13:17:53.402Z,80.43
2022-11-22T13:23:10.012Z,83.22
2022-11-22T13:28:10.629Z,82.55
2022-11-22T13:33:22.432Z,76.20
2022-11-22T13:38:20.823Z,76.50
2022-11-22T13:43:22.356Z,79.97
2022-11-22T13:48:37.615Z,74.38
2022-11-22T13:53:35.241Z,74.35
2022-11-22T13:58:40.414Z,77.07
2022-11-22T14:03:39.601Z,72.18
2022-11-22T14:08:37.126Z,74.95
2022-11-22T14:13:48.700Z,72.18
2022-11-22T14:19:06.202Z,71.47
2022-11-22T14:24:08.597Z,77.20
2022-11-22T14:29:25.062Z,71.40
2022-11-22T14:34:28.127Z,73.30
2022-11-22T14:39:43.014Z,73.63
2022-11-22T14:44:39.756Z,76.85
2022-11-22T14:49:40.806Z,78.00
2022-11-22T14:54:45.476Z,77.13
2022-11-22T14:59:41.662Z,74.32
2022-11-22T15:09:13.829Z,73.35
2022-11-22T15:10:41.232Z,73.35
2022-11-22T15:58:21.457Z,84.07
2022-11-22T16:03:22.930Z,84.65
2022-11-22T16:08:19.226Z,85.25
2022-11-22T16:13:18.178Z,87.32
2022-11-22T16:18:27.541Z,83.60
2022-11-22T16:23:24.775Z,82.40
2022-11-22T16:28:31.757Z,81.43
2022-11-22T16:33:28.207Z,80.40
2022-11-22T16:38:24.913Z,74.28
2022-11-22T16:43:25.733Z,72.57
2022-11-22T16:48:32.171Z,62.47
2022-11-22T16:53:36.723Z,61.63
2022-11-22T16:58:33.047Z,62.85
2022-11-22T17:03:31.715Z,62.60
2022-11-22T17:08:27.920Z,61.42
2022-11-22T17:13:28.717Z,62.95
2022-11-22T17:18:24.925Z,62.45
2022-11-22T17:23:26.057Z,62.42
2022-11-22T17:28:22.371Z,66.70
2022-11-22T17:33:25.486Z,66.68
2022-11-22T17:38:21.703Z,66.65
2022-11-22T17:43:17.986Z,71.88
2022-11-22T17:48:14.194Z,73.47
2022-11-22T17:53:10.373Z,71.95
2022-11-22T17:58:06.556Z,72.63
2022-11-22T18:03:07.998Z,73.72
2022-11-22T18:08:04.660Z,73.33
2022-11-22T18:13:20.326Z,73.72
2022-11-22T18:18:33.545Z,72.53
2022-11-22T18:23:33.938Z,76.00
2022-11-22T18:28:30.637Z,76.90
2022-11-22T18:33:30.673Z,76.38
2022-11-22T18:38:29.753Z,77.15
2022-11-22T18:43:25.988Z,77.35
2022-11-22T18:48:22.361Z,79.00
2022-11-22T18:53:18.573Z,81.05
2022-11-22T18:58:14.809Z,79.63
2022-11-22T19:03:11.312Z,85.32
2022-11-22T19:08:08.873Z,87.28
2022-11-22T19:13:05.102Z,92.75
2022-11-22T19:18:01.414Z,93.95
2022-11-22T19:22:57.651Z,100.20
2022-11-22T19:27:53.891Z,101.50
2022-11-22T19:32:50.127Z,104.20
2022-11-22T19:37:46.316Z,101.80
2022-11-22T19:42:42.641Z,104.85
2022-11-22T19:47:38.862Z,105.28
2022-11-22T19:52:35.062Z,111.57
2022-11-22T19:57:31.293Z,108.25
2022-11-22T20:02:27.471Z,111.88
2022-11-22T20:07:23.712Z,112.57
2022-11-22T20:12:19.951Z,116.05
2022-11-22T20:17:16.183Z,117.28
2022-11-22T20:22:12.625Z,118.30
2022-11-22T20:27:10.125Z,118.28
2022-11-22T20:32:06.433Z,124.55
2022-11-22T20:37:03.319Z,124.38
2022-11-22T20:42:26.323Z,125.10
2022-11-22T20:47:15.720Z,125.13
2022-11-22T20:52:11.921Z,125.25
2022-11-22T20:57:08.138Z,132.88
2022-11-22T21:02:09.037Z,126.45
2022-11-22T21:07:05.681Z,130.35
2022-11-22T21:12:01.959Z,132.77
2022-11-22T21:17:11.088Z,136.70
2022-11-22T21:22:14.422Z,136.95
2022-11-22T21:27:10.661Z,141.18
2022-11-22T21:32:06.829Z,140.10
2022-11-22T21:37:03.041Z,144.73
2022-11-22T21:41:59.242Z,142.55
2022-11-22T21:46:55.623Z,142.18
2022-11-22T21:51:51.797Z,145.23
2022-11-22T21:56:48.076Z,144.32
2022-11-22T22:01:44.314Z,154.20
2022-11-22T22:06:45.816Z,156.75
2022-11-22T22:11:45.449Z,155.33
2022-11-22T22:16:41.638Z,162.27
2022-11-22T22:21:37.825Z,159.80
2022-11-22T22:26:34.010Z,162.93
2022-11-22T22:31:30.227Z,162.98
2022-11-22T22:36:27.016Z,169.23
2022-11-22T22:41:23.245Z,164.15
2022-11-22T22:46:21.465Z,164.85
2022-11-22T22:51:19.031Z,161.07
2022-11-22T22:56:16.585Z,162.23
2022-11-22T23:01:20.070Z,154.98
2022-11-22T23:06:17.120Z,160.75
2022-11-22T23:11:13.870Z,162.40
2022-11-22T23:16:11.438Z,163.50
2022-11-22T23:21:08.461Z,160.52
2022-11-22T23:26:09.125Z,165.40
2022-11-22T23:31:10.234Z,163.18
2022-11-22T23:36:07.858Z,163.50
2022-11-22T23:41:04.737Z,164.20
2022-11-22T23:46:00.924Z,162.55
2022-11-22T23:51:01.993Z,159.90
2022-11-22T23:56:04.386Z,160.35
